5WI7 weather

Thedacare Medical Center Waupaca Heliport
Waupaca, Wisconsin, United States

Public forecast

Using degrees Fahrenheit for public forecast. Weather courtesy of forecast.io.

Closest aviation weather report (METAR) to Thedacare Medical Center Waupaca Heliport

Closest report is Waupaca Municipal Airport, 2.5 nm (4.7 km) ESE. Retrieved 2019/10/24 02:35 UTC (0 seconds ago):

KPCZ 240235Z AUTO 31006KT 10SM BKN070 OVC100 07/02 A3001 RMK AO2 T00700016

Closest aviation forecast (TAF) to Thedacare Medical Center Waupaca Heliport

Closest forecast is Appleton International Airport, 24.5 nm (45.4 km) ESE. Retrieved 2019-10-24 00:30 UTC (2 hours ago):

TAF KATW 232328Z 2400/2424 27006KT P6SM SCT035 OVC100 FM240100 29005KT P6SM VCSH BKN035 OVC080 FM240500 29008KT P6SM BKN040